createdAt,value
2018-12-16T00:02:22.219Z,6.22
2018-12-16T00:04:50.065Z,6.25
2018-12-16T00:07:14.796Z,6.25
2018-12-16T00:09:41.074Z,6.32
2018-12-16T00:12:07.402Z,6.36
2018-12-16T00:14:33.678Z,6.36
2018-12-16T00:16:59.983Z,6.35
2018-12-16T00:19:26.279Z,6.35
2018-12-16T00:21:52.585Z,6.33
2018-12-16T00:24:18.859Z,6.36
2018-12-16T00:26:45.151Z,6.36
2018-12-16T00:29:11.454Z,6.34
2018-12-16T00:31:37.752Z,6.36
2018-12-16T00:34:04.030Z,6.38
2018-12-16T00:36:30.350Z,6.40
2018-12-16T00:38:56.642Z,6.42
2018-12-16T00:41:22.956Z,6.44
2018-12-16T00:43:49.233Z,6.46
2018-12-16T00:46:15.509Z,6.48
2018-12-16T00:48:41.791Z,6.47
2018-12-16T00:51:08.090Z,6.46
2018-12-16T00:53:34.376Z,6.48
2018-12-16T00:56:00.684Z,6.46
2018-12-16T00:58:26.980Z,6.46
2018-12-16T01:00:53.308Z,6.42
2018-12-16T01:03:19.596Z,6.42
2018-12-16T01:05:45.906Z,6.42
2018-12-16T01:08:12.205Z,6.42
2018-12-16T01:10:38.484Z,6.42
2018-12-16T01:13:04.783Z,6.46
2018-12-16T01:15:31.077Z,6.48
2018-12-16T01:17:57.359Z,6.47
2018-12-16T01:20:23.669Z,6.52
2018-12-16T01:22:49.980Z,6.56
2018-12-16T01:25:16.281Z,6.59
2018-12-16T01:27:42.559Z,6.62
2018-12-16T01:30:09.634Z,6.68
2018-12-16T01:32:35.907Z,6.75
2018-12-16T01:35:02.198Z,7.02
2018-12-16T01:37:28.503Z,7.04
2018-12-16T01:39:54.791Z,6.93
2018-12-16T01:42:21.084Z,6.84
2018-12-16T01:44:47.397Z,6.84
2018-12-16T01:47:13.671Z,6.80
2018-12-16T01:49:39.950Z,6.78
2018-12-16T01:52:06.254Z,6.76
2018-12-16T01:54:32.547Z,6.73
2018-12-16T01:56:58.832Z,6.70
2018-12-16T01:59:25.129Z,6.68
2018-12-16T02:01:51.394Z,6.66
2018-12-16T02:04:17.697Z,6.67
2018-12-16T02:06:43.977Z,6.68
2018-12-16T02:09:10.291Z,6.67
2018-12-16T02:11:36.602Z,6.62
2018-12-16T02:14:02.920Z,6.62
2018-12-16T02:16:29.207Z,6.63
2018-12-16T02:18:55.498Z,6.60
2018-12-16T02:21:21.783Z,6.57
2018-12-16T02:23:48.206Z,6.57
2018-12-16T02:26:14.502Z,6.56
2018-12-16T02:28:40.806Z,6.60
2018-12-16T02:31:07.102Z,6.63
2018-12-16T02:33:33.382Z,6.63
2018-12-16T02:35:59.691Z,6.62
2018-12-16T02:38:25.974Z,6.60
2018-12-16T02:40:52.279Z,6.60
2018-12-16T02:43:18.574Z,6.62
2018-12-16T02:45:44.900Z,6.62
2018-12-16T02:48:11.195Z,6.63
2018-12-16T02:50:37.503Z,6.63
2018-12-16T02:53:04.682Z,6.62
2018-12-16T02:55:30.128Z,6.59
2018-12-16T02:57:56.399Z,6.59
2018-12-16T03:00:22.690Z,6.62
2018-12-16T03:02:48.965Z,6.65
2018-12-16T03:05:15.264Z,6.65
2018-12-16T03:07:41.559Z,6.68
2018-12-16T03:10:07.833Z,6.70
2018-12-16T03:12:34.120Z,6.69
2018-12-16T03:15:00.406Z,6.71
2018-12-16T03:17:26.755Z,6.69
2018-12-16T03:19:53.046Z,6.69
2018-12-16T03:22:19.345Z,6.66
2018-12-16T03:24:45.633Z,6.66
2018-12-16T03:27:11.947Z,6.63
2018-12-16T03:29:38.238Z,6.60
2018-12-16T03:32:04.536Z,6.61
2018-12-16T03:34:30.843Z,6.64
2018-12-16T03:36:57.128Z,6.66
2018-12-16T03:39:23.407Z,6.74
2018-12-16T03:41:49.725Z,6.77
2018-12-16T03:44:16.062Z,6.78
2018-12-16T03:46:42.321Z,6.80
2018-12-16T03:49:08.606Z,6.82
2018-12-16T03:51:34.897Z,6.82
2018-12-16T03:54:01.249Z,6.85
2018-12-16T03:56:27.458Z,6.85
2018-12-16T03:58:53.736Z,6.81
2018-12-16T04:01:20.029Z,6.81
2018-12-16T04:03:46.315Z,6.83
2018-12-16T04:06:12.632Z,6.82
2018-12-16T04:08:38.918Z,6.87
2018-12-16T04:11:05.219Z,6.88
2018-12-16T04:13:31.519Z,6.91
2018-12-16T04:15:57.811Z,6.88
2018-12-16T04:18:24.126Z,6.87
2018-12-16T04:20:50.402Z,6.81
2018-12-16T04:23:16.684Z,6.82
2018-12-16T04:25:42.981Z,6.86
2018-12-16T04:28:09.470Z,6.86
2018-12-16T04:30:35.603Z,6.91
2018-12-16T04:33:01.910Z,6.94
2018-12-16T04:35:28.217Z,6.93
2018-12-16T04:37:54.514Z,6.92
2018-12-16T04:40:20.815Z,6.95
2018-12-16T04:42:47.131Z,6.99
2018-12-16T04:45:13.403Z,7.01
2018-12-16T04:47:39.721Z,7.00
2018-12-16T04:50:06.005Z,6.93
2018-12-16T04:52:32.304Z,6.89
2018-12-16T04:54:58.580Z,6.92
2018-12-16T04:57:24.871Z,6.91
2018-12-16T04:59:51.163Z,6.93
2018-12-16T05:02:17.451Z,6.97
2018-12-16T05:04:43.766Z,6.60
2018-12-16T05:07:10.060Z,6.09
2018-12-16T05:09:36.364Z,5.78
2018-12-16T05:12:02.649Z,5.59
2018-12-16T05:14:28.933Z,5.46
2018-12-16T05:16:55.227Z,5.43
2018-12-16T05:19:21.533Z,5.36
2018-12-16T05:21:47.817Z,5.26
2018-12-16T05:24:14.104Z,5.30
2018-12-16T05:26:40.397Z,5.22
2018-12-16T05:29:06.680Z,5.05
2018-12-16T05:31:33.005Z,4.91
2018-12-16T05:33:59.308Z,4.75
2018-12-16T05:36:25.589Z,4.68
2018-12-16T05:38:51.880Z,4.60
2018-12-16T05:41:18.173Z,4.54
2018-12-16T05:43:44.466Z,4.51
2018-12-16T05:46:10.752Z,4.57
2018-12-16T05:48:37.065Z,4.37
2018-12-16T05:51:03.378Z,4.39
2018-12-16T05:53:29.653Z,4.34
2018-12-16T05:55:55.953Z,4.19
2018-12-16T05:58:22.255Z,4.02
2018-12-16T06:00:48.591Z,3.86
2018-12-16T06:03:14.877Z,3.79
2018-12-16T06:05:41.164Z,3.66
2018-12-16T06:08:07.452Z,3.44
2018-12-16T06:10:33.730Z,3.29
2018-12-16T06:13:00.038Z,3.28
2018-12-16T06:15:26.302Z,3.31
2018-12-16T06:17:52.633Z,3.10
2018-12-16T06:20:18.925Z,2.95
2018-12-16T06:22:45.210Z,2.90
2018-12-16T06:25:11.507Z,2.86
2018-12-16T06:27:37.806Z,2.75
2018-12-16T06:30:10.505Z,2.78
2018-12-16T06:32:36.790Z,2.69
2018-12-16T06:35:03.068Z,2.67
2018-12-16T06:37:29.371Z,2.73
2018-12-16T06:39:55.659Z,2.61
2018-12-16T06:42:21.938Z,2.43
2018-12-16T06:44:48.228Z,2.31
2018-12-16T06:47:14.508Z,2.15
2018-12-16T06:49:40.803Z,2.06
2018-12-16T06:52:07.101Z,2.02
2018-12-16T06:54:33.371Z,1.99
2018-12-16T06:56:59.650Z,1.93
2018-12-16T06:59:25.950Z,1.94
2018-12-16T07:01:52.225Z,1.87
2018-12-16T07:04:18.542Z,1.84
2018-12-16T07:06:44.817Z,1.85
2018-12-16T07:09:11.113Z,1.83
2018-12-16T07:11:37.402Z,1.85
2018-12-16T07:14:03.677Z,1.82
2018-12-16T07:16:29.971Z,1.60
2018-12-16T07:18:56.270Z,1.55
2018-12-16T07:21:22.540Z,1.53
2018-12-16T07:23:48.857Z,1.52
2018-12-16T07:26:15.141Z,1.43
2018-12-16T07:28:41.431Z,1.31
2018-12-16T07:31:07.716Z,1.28
2018-12-16T07:33:34.026Z,1.34
2018-12-16T07:36:00.334Z,1.35
2018-12-16T07:38:26.586Z,1.23
2018-12-16T07:40:52.879Z,1.14
2018-12-16T07:43:19.188Z,1.16
2018-12-16T07:45:45.481Z,1.09
2018-12-16T07:48:11.769Z,1.00
2018-12-16T07:50:38.049Z,1.00
2018-12-16T07:53:04.340Z,0.88
2018-12-16T07:55:30.616Z,0.80
2018-12-16T07:57:56.924Z,0.76
2018-12-16T08:00:23.259Z,0.70
2018-12-16T08:02:49.548Z,0.59
2018-12-16T08:05:15.866Z,0.62
2018-12-16T08:07:42.131Z,0.61
2018-12-16T08:10:08.400Z,0.54
2018-12-16T08:12:34.716Z,0.37
2018-12-16T08:15:00.986Z,0.33
2018-12-16T08:17:27.291Z,0.30
2018-12-16T08:19:53.587Z,0.27
2018-12-16T08:22:19.883Z,0.17
2018-12-16T08:24:46.178Z,0.11
2018-12-16T08:27:12.480Z,0.05
2018-12-16T08:29:38.762Z,0.01
2018-12-16T08:32:05.053Z,0.08
2018-12-16T08:34:31.421Z,0.04
2018-12-16T08:36:57.728Z,-0.01
2018-12-16T08:39:24.004Z,-0.08
2018-12-16T08:41:50.302Z,-0.12
2018-12-16T08:44:16.584Z,-0.15
2018-12-16T08:46:42.907Z,-0.18
2018-12-16T08:49:09.176Z,-0.20
2018-12-16T08:51:35.492Z,-0.22
2018-12-16T08:54:01.780Z,-0.32
2018-12-16T08:56:28.081Z,-0.35
2018-12-16T08:58:54.388Z,-0.46
2018-12-16T09:01:20.655Z,-0.50
2018-12-16T09:03:46.962Z,-0.51
2018-12-16T09:06:13.305Z,-0.59
2018-12-16T09:08:39.586Z,-0.66
2018-12-16T09:11:05.890Z,-0.80
2018-12-16T09:13:32.169Z,-0.85
2018-12-16T09:15:58.513Z,-0.88
2018-12-16T09:18:24.796Z,-0.99
2018-12-16T09:20:51.068Z,-1.04
2018-12-16T09:23:17.357Z,-1.06
2018-12-16T09:25:43.636Z,-1.07
2018-12-16T09:28:09.935Z,-1.10
2018-12-16T09:30:36.226Z,-1.18
2018-12-16T09:33:02.512Z,-1.23
2018-12-16T09:35:28.866Z,-1.24
2018-12-16T09:37:55.146Z,-1.24
2018-12-16T09:40:21.444Z,-1.29
2018-12-16T09:42:47.728Z,-1.34
2018-12-16T09:45:14.054Z,-1.37
2018-12-16T09:47:40.366Z,-1.44
2018-12-16T09:50:06.682Z,-1.46
2018-12-16T09:52:32.966Z,-1.47
2018-12-16T09:54:59.260Z,-1.42
2018-12-16T09:57:25.562Z,-1.44
2018-12-16T09:59:51.870Z,-1.49
2018-12-16T10:02:18.151Z,-1.51
2018-12-16T10:04:44.422Z,-1.46
2018-12-16T10:07:10.724Z,-1.53
2018-12-16T10:09:37.009Z,-1.53
2018-12-16T10:12:03.312Z,-1.51
2018-12-16T10:14:29.625Z,-1.50
2018-12-16T10:16:55.914Z,-1.51
2018-12-16T10:19:22.228Z,-1.46
2018-12-16T10:21:48.512Z,-1.41
2018-12-16T10:24:14.828Z,-1.42
2018-12-16T10:26:41.159Z,-1.37
2018-12-16T10:29:07.407Z,-1.40
2018-12-16T10:31:33.694Z,-1.41
2018-12-16T10:34:00.004Z,-1.42
2018-12-16T10:36:26.299Z,-1.35
2018-12-16T10:38:52.592Z,-1.36
2018-12-16T10:41:18.912Z,-1.36
2018-12-16T10:43:45.228Z,-1.38
2018-12-16T10:46:11.559Z,-1.35
2018-12-16T10:48:37.845Z,-1.33
2018-12-16T10:51:04.143Z,-1.37
2018-12-16T10:53:30.452Z,-1.42
2018-12-16T10:55:56.736Z,-1.40
2018-12-16T10:58:23.053Z,-1.40
2018-12-16T11:00:49.349Z,-1.40
2018-12-16T11:03:15.622Z,-1.38
2018-12-16T11:05:41.958Z,-1.39
2018-12-16T11:08:08.244Z,-1.42
2018-12-16T11:10:34.522Z,-1.40
2018-12-16T11:13:00.801Z,-1.34
2018-12-16T11:15:27.103Z,-1.34
2018-12-16T11:17:53.400Z,-1.32
2018-12-16T11:20:19.672Z,-1.33
2018-12-16T11:22:45.991Z,-1.28
2018-12-16T11:25:12.281Z,-1.30
2018-12-16T11:27:38.573Z,-1.35
2018-12-16T11:30:11.665Z,-1.33
2018-12-16T11:32:37.955Z,-1.39
2018-12-16T11:35:04.248Z,-1.43
2018-12-16T11:37:30.558Z,-1.18
2018-12-16T11:39:56.862Z,-1.10
2018-12-16T11:42:23.180Z,-1.08
2018-12-16T11:44:49.462Z,-1.06
2018-12-16T11:47:17.219Z,-1.08
2018-12-16T11:49:42.055Z,-1.06
2018-12-16T11:52:08.380Z,-0.94
2018-12-16T11:54:34.684Z,-0.88
2018-12-16T11:57:00.974Z,-0.96
2018-12-16T11:59:29.536Z,-0.88
2018-12-16T12:01:55.850Z,-0.94
2018-12-16T12:04:22.137Z,-1.07
2018-12-16T12:06:48.433Z,-1.20
2018-12-16T12:09:14.709Z,-1.21
2018-12-16T12:11:41.026Z,-1.27
2018-12-16T12:14:07.305Z,-1.15
2018-12-16T12:16:33.628Z,-1.21
2018-12-16T12:18:59.915Z,-1.34
2018-12-16T12:21:26.220Z,-1.40
2018-12-16T12:23:52.519Z,-1.47
2018-12-16T12:26:18.825Z,-1.45
2018-12-16T12:28:45.107Z,-1.45
2018-12-16T12:31:11.404Z,-1.43
2018-12-16T12:33:37.710Z,-1.45
2018-12-16T12:36:04.044Z,-1.43
2018-12-16T12:38:30.345Z,-1.48
2018-12-16T12:40:56.653Z,-1.44
2018-12-16T12:43:22.942Z,-1.42
2018-12-16T12:45:49.236Z,-1.39
2018-12-16T12:48:15.526Z,-1.35
2018-12-16T12:50:41.818Z,-1.33
2018-12-16T12:53:08.107Z,-1.37
2018-12-16T12:55:34.403Z,-1.31
2018-12-16T12:58:00.719Z,-1.30
2018-12-16T13:00:27.217Z,-1.34
2018-12-16T13:02:53.525Z,-1.40
2018-12-16T13:05:19.832Z,-1.41
2018-12-16T13:07:46.125Z,-1.38
2018-12-16T13:10:12.419Z,-1.42
2018-12-16T13:12:38.731Z,-1.49
2018-12-16T13:15:05.005Z,-1.42
2018-12-16T13:17:31.322Z,-1.46
2018-12-16T13:19:57.618Z,-1.40
2018-12-16T13:22:23.900Z,-1.40
2018-12-16T13:24:50.203Z,-1.37
2018-12-16T13:27:16.487Z,-1.34
2018-12-16T13:29:42.780Z,-1.35
2018-12-16T13:32:09.080Z,-1.38
2018-12-16T13:34:35.378Z,-1.36
2018-12-16T13:37:01.670Z,-1.38
2018-12-16T13:39:28.002Z,-1.43
2018-12-16T13:41:54.309Z,-1.44
2018-12-16T13:44:20.630Z,-1.44
2018-12-16T13:46:46.919Z,-1.39
2018-12-16T13:49:13.237Z,-1.39
2018-12-16T13:51:39.543Z,-1.39
2018-12-16T13:54:05.843Z,-1.37
2018-12-16T13:56:32.129Z,-1.31
2018-12-16T13:58:58.460Z,-1.19
2018-12-16T14:01:24.740Z,-1.30
2018-12-16T14:03:51.023Z,-1.39
2018-12-16T14:06:17.362Z,-1.39
2018-12-16T14:08:43.647Z,-1.47
2018-12-16T14:11:09.939Z,-1.42
2018-12-16T14:13:36.224Z,-1.45
2018-12-16T14:16:02.517Z,-1.45
2018-12-16T14:18:37.342Z,-1.46
2018-12-16T14:20:57.668Z,-1.46
2018-12-16T14:23:23.963Z,-1.43
2018-12-16T14:25:50.242Z,-1.48
2018-12-16T14:28:16.545Z,-1.45
2018-12-16T14:30:42.845Z,-1.47
2018-12-16T14:33:09.142Z,-1.49
2018-12-16T14:35:35.509Z,-1.43
2018-12-16T14:38:01.762Z,-1.42
2018-12-16T14:40:28.043Z,-1.45
2018-12-16T14:42:56.580Z,-1.41
2018-12-16T14:45:22.899Z,-1.44
2018-12-16T14:47:49.165Z,-1.51
2018-12-16T14:50:15.461Z,-1.50
2018-12-16T14:52:41.761Z,-1.54
2018-12-16T14:55:08.061Z,-1.48
2018-12-16T14:57:34.334Z,-1.58
2018-12-16T15:00:00.655Z,-1.54
2018-12-16T15:02:26.961Z,-1.53
2018-12-16T15:04:54.285Z,-1.50
2018-12-16T15:07:19.543Z,-1.41
2018-12-16T15:09:45.865Z,-1.39
2018-12-16T15:12:12.147Z,-1.42
2018-12-16T15:14:38.457Z,-1.45
2018-12-16T15:17:04.786Z,-1.46
2018-12-16T15:19:31.094Z,-1.45
2018-12-16T15:21:57.376Z,-1.38
2018-12-16T15:24:23.695Z,-1.37
2018-12-16T15:26:49.972Z,-1.46
2018-12-16T15:29:16.281Z,-1.43
2018-12-16T15:31:42.579Z,-1.40
2018-12-16T15:34:08.893Z,-1.42
2018-12-16T15:36:35.181Z,-1.38
2018-12-16T15:39:01.476Z,-1.36
2018-12-16T15:41:27.801Z,-1.34
2018-12-16T15:43:54.095Z,-1.33
2018-12-16T15:46:20.385Z,-1.33
2018-12-16T15:48:46.702Z,-1.31
2018-12-16T15:51:12.987Z,-1.32
2018-12-16T15:53:39.283Z,-1.33
2018-12-16T15:56:09.351Z,-1.18
2018-12-16T15:58:31.895Z,-1.15
2018-12-16T16:00:58.180Z,-1.07
2018-12-16T16:03:24.494Z,-1.05
2018-12-16T16:05:50.782Z,-1.05
2018-12-16T16:08:17.127Z,-1.16
2018-12-16T16:10:43.384Z,-1.19
2018-12-16T16:13:09.680Z,-1.21
2018-12-16T16:15:35.963Z,-1.23
2018-12-16T16:18:02.260Z,-1.24
2018-12-16T16:20:28.566Z,-1.22
2018-12-16T16:22:54.861Z,-1.26
2018-12-16T16:25:21.156Z,-1.22
2018-12-16T16:27:47.466Z,-1.20
2018-12-16T16:30:13.999Z,-1.32
2018-12-16T16:32:40.295Z,-1.35
2018-12-16T16:35:06.593Z,-1.40
2018-12-16T16:37:32.881Z,-1.40
2018-12-16T16:39:59.172Z,-1.47
2018-12-16T16:42:25.462Z,-1.49
2018-12-16T16:44:51.739Z,-1.50
2018-12-16T16:47:18.048Z,-1.49
2018-12-16T16:49:44.349Z,-1.49
2018-12-16T16:52:10.626Z,-1.50
2018-12-16T16:54:36.912Z,-1.51
2018-12-16T16:57:03.221Z,-1.56
2018-12-16T16:59:30.418Z,-1.51
2018-12-16T17:01:56.696Z,-1.53
2018-12-16T17:04:22.997Z,-1.53
2018-12-16T17:06:49.301Z,-1.58
2018-12-16T17:09:15.586Z,-1.62
2018-12-16T17:11:41.892Z,-1.63
2018-12-16T17:14:08.171Z,-1.59
2018-12-16T17:16:34.464Z,-1.64
2018-12-16T17:19:00.809Z,-1.62
2018-12-16T17:21:27.147Z,-1.61
2018-12-16T17:23:53.469Z,-1.65
2018-12-16T17:26:19.740Z,-1.64
2018-12-16T17:28:46.045Z,-1.65
2018-12-16T17:31:12.317Z,-1.64
2018-12-16T17:33:39.434Z,-1.60
2018-12-16T17:36:05.776Z,-1.63
2018-12-16T17:38:32.074Z,-1.64
2018-12-16T17:40:58.352Z,-1.68
2018-12-16T17:43:24.630Z,-1.65
2018-12-16T17:45:50.902Z,-1.62
2018-12-16T17:48:17.187Z,-1.63
2018-12-16T17:50:43.473Z,-1.58
2018-12-16T17:53:09.773Z,-1.62
2018-12-16T17:55:36.062Z,-1.61
2018-12-16T17:58:02.340Z,-1.59
2018-12-16T18:00:28.665Z,-1.64
2018-12-16T18:02:54.936Z,-1.64
2018-12-16T18:05:21.238Z,-1.68
2018-12-16T18:07:47.537Z,-1.67
2018-12-16T18:10:13.826Z,-1.63
2018-12-16T18:12:40.116Z,-1.60
2018-12-16T18:15:06.425Z,-1.60
2018-12-16T18:17:32.715Z,-1.59
2018-12-16T18:19:59.008Z,-1.59
2018-12-16T18:22:25.300Z,-1.63
2018-12-16T18:24:51.612Z,-1.63
2018-12-16T18:27:18.200Z,-1.63
2018-12-16T18:29:44.498Z,-1.63
2018-12-16T18:32:10.771Z,-1.63
2018-12-16T18:34:37.068Z,-1.59
2018-12-16T18:37:03.361Z,-1.58
2018-12-16T18:39:29.649Z,-1.58
2018-12-16T18:41:55.954Z,-1.64
2018-12-16T18:44:22.243Z,-1.61
2018-12-16T18:46:48.539Z,-1.61
2018-12-16T18:49:14.837Z,-1.63
2018-12-16T18:51:41.115Z,-1.64
2018-12-16T18:54:07.427Z,-1.64
2018-12-16T18:56:33.714Z,-1.70
2018-12-16T18:59:00.013Z,-1.65
2018-12-16T19:01:26.290Z,-1.63
2018-12-16T19:03:52.604Z,-1.60
2018-12-16T19:06:18.895Z,-1.63
2018-12-16T19:08:45.187Z,-1.65
2018-12-16T19:11:11.465Z,-1.66
2018-12-16T19:13:37.759Z,-1.66
2018-12-16T19:16:04.085Z,-1.62
2018-12-16T19:18:30.393Z,-1.62
2018-12-16T19:20:56.693Z,-1.65
2018-12-16T19:23:22.999Z,-1.70
2018-12-16T19:25:49.298Z,-1.72
2018-12-16T19:28:15.607Z,-1.66
2018-12-16T19:30:41.899Z,-1.68
2018-12-16T19:33:08.196Z,-1.66
2018-12-16T19:35:34.496Z,-1.65
2018-12-16T19:38:03.110Z,-1.65
2018-12-16T19:40:27.073Z,-1.67
2018-12-16T19:42:53.381Z,-1.65
2018-12-16T19:45:19.673Z,-1.60
2018-12-16T19:47:49.508Z,-1.61
2018-12-16T19:50:13.361Z,-1.67
2018-12-16T19:52:38.530Z,-1.66
2018-12-16T19:55:06.868Z,-1.72
2018-12-16T19:57:31.114Z,-1.69
2018-12-16T19:59:57.423Z,-1.67
2018-12-16T20:02:23.712Z,-1.69
2018-12-16T20:04:50.002Z,-1.69
2018-12-16T20:07:16.317Z,-1.68
2018-12-16T20:09:42.619Z,-1.69
2018-12-16T20:12:09.392Z,-1.76
2018-12-16T20:14:35.686Z,-1.76
2018-12-16T20:17:02.051Z,-1.79
2018-12-16T20:19:28.343Z,-1.80
2018-12-16T20:21:54.635Z,-1.84
2018-12-16T20:24:20.924Z,-1.86
2018-12-16T20:26:47.208Z,-1.90
2018-12-16T20:29:13.495Z,-1.89
2018-12-16T20:31:39.761Z,-1.83
2018-12-16T20:34:06.064Z,-1.85
2018-12-16T20:36:32.395Z,-1.81
2018-12-16T20:38:58.669Z,-1.88
2018-12-16T20:41:24.969Z,-1.85
2018-12-16T20:43:51.261Z,-1.87
2018-12-16T20:46:17.550Z,-1.96
2018-12-16T20:48:43.848Z,-1.95
2018-12-16T20:51:10.133Z,-1.85
2018-12-16T20:53:36.421Z,-1.92
2018-12-16T20:56:02.710Z,-1.96
2018-12-16T20:58:28.988Z,-1.89
2018-12-16T21:00:55.259Z,-1.94
2018-12-16T21:03:21.606Z,-1.95
2018-12-16T21:05:47.902Z,-1.94
2018-12-16T21:08:14.193Z,-1.98
2018-12-16T21:10:40.483Z,-1.98
2018-12-16T21:13:06.790Z,-1.97
2018-12-16T21:15:33.081Z,-1.99
2018-12-16T21:17:59.371Z,-2.02
2018-12-16T21:20:25.669Z,-2.05
2018-12-16T21:22:51.957Z,-2.08
2018-12-16T21:25:18.230Z,-2.02
2018-12-16T21:27:44.559Z,-2.02
2018-12-16T21:30:10.849Z,-2.02
2018-12-16T21:32:37.135Z,-2.06
2018-12-16T21:35:03.416Z,-2.06
2018-12-16T21:37:29.716Z,-2.04
2018-12-16T21:39:55.994Z,-2.03
2018-12-16T21:42:22.287Z,-2.03
2018-12-16T21:44:48.589Z,-2.07
2018-12-16T21:47:14.876Z,-2.07
2018-12-16T21:49:41.161Z,-2.04
2018-12-16T21:52:07.437Z,-2.03
2018-12-16T21:54:33.710Z,-2.04
2018-12-16T21:56:59.989Z,-1.95
2018-12-16T21:59:26.337Z,-1.95
2018-12-16T22:01:52.614Z,-2.00
2018-12-16T22:04:18.921Z,-1.98
2018-12-16T22:06:45.244Z,-1.99
2018-12-16T22:09:11.954Z,-2.00
2018-12-16T22:11:37.828Z,-2.00
2018-12-16T22:14:04.135Z,-1.96
2018-12-16T22:16:30.431Z,-2.02
2018-12-16T22:18:56.728Z,-2.02
2018-12-16T22:21:23.025Z,-1.97
2018-12-16T22:23:49.320Z,-1.98
2018-12-16T22:26:15.603Z,-2.01
2018-12-16T22:28:41.917Z,-2.00
2018-12-16T22:31:08.213Z,-2.01
2018-12-16T22:33:34.490Z,-2.01
2018-12-16T22:36:00.819Z,-2.02
2018-12-16T22:38:27.117Z,-2.00
2018-12-16T22:40:53.397Z,-2.00
2018-12-16T22:43:19.705Z,-2.02
2018-12-16T22:45:45.976Z,-1.98
2018-12-16T22:48:12.276Z,-1.96
2018-12-16T22:50:38.559Z,-1.93
2018-12-16T22:53:04.873Z,-2.00
2018-12-16T22:55:31.167Z,-1.99
2018-12-16T22:57:57.482Z,-1.99
2018-12-16T23:00:23.775Z,-2.00
2018-12-16T23:02:50.069Z,-1.99
2018-12-16T23:05:16.354Z,-2.03
2018-12-16T23:07:42.668Z,-1.97
2018-12-16T23:10:08.940Z,-1.95
2018-12-16T23:12:35.246Z,-1.96
2018-12-16T23:15:01.533Z,-1.93
2018-12-16T23:17:27.845Z,-1.95
2018-12-16T23:19:54.130Z,-1.95
2018-12-16T23:22:20.446Z,-1.96
2018-12-16T23:24:46.746Z,-1.96
2018-12-16T23:27:13.017Z,-1.95
2018-12-16T23:29:39.310Z,-1.96
2018-12-16T23:32:05.617Z,-1.94
2018-12-16T23:34:31.917Z,-1.94
2018-12-16T23:36:58.216Z,-1.97
2018-12-16T23:39:24.517Z,-1.97
2018-12-16T23:41:50.798Z,-1.95
2018-12-16T23:44:17.085Z,-1.99
2018-12-16T23:46:43.386Z,-2.02
2018-12-16T23:49:09.660Z,-2.00
2018-12-16T23:51:35.962Z,-1.97
2018-12-16T23:54:02.256Z,-1.98
2018-12-16T23:56:28.564Z,-1.96
2018-12-16T23:58:54.842Z,-1.93
